createdAt,value
2019-05-17T00:00:12.990Z,4.30
2019-05-17T00:02:39.727Z,4.73
2019-05-17T00:05:06.895Z,4.40
2019-05-17T00:07:33.178Z,4.63
2019-05-17T00:09:59.894Z,5.40
2019-05-17T00:12:27.094Z,5.30
2019-05-17T00:14:53.365Z,5.47
2019-05-17T00:17:20.100Z,5.57
2019-05-17T00:19:46.850Z,6.00
2019-05-17T00:22:13.589Z,6.17
2019-05-17T00:24:40.313Z,7.42
2019-05-17T00:27:07.042Z,7.50
2019-05-17T00:29:34.170Z,7.00
2019-05-17T00:32:00.895Z,7.37
2019-05-17T00:34:27.633Z,8.30
2019-05-17T00:36:54.355Z,8.03
2019-05-17T00:39:21.090Z,9.40
2019-05-17T00:41:47.827Z,10.65
2019-05-17T00:44:16.595Z,11.60
2019-05-17T00:46:41.318Z,12.50
2019-05-17T00:49:08.062Z,10.60
2019-05-17T00:51:36.887Z,10.40
2019-05-17T00:54:01.652Z,12.47
2019-05-17T00:56:28.377Z,13.45
2019-05-17T00:58:56.828Z,14.10
2019-05-17T01:01:21.869Z,14.50
2019-05-17T01:03:48.630Z,12.90
2019-05-17T01:06:16.971Z,12.30
2019-05-17T01:08:42.122Z,12.10
2019-05-17T01:11:08.911Z,12.50
2019-05-17T01:13:37.497Z,13.33
2019-05-17T01:16:02.386Z,11.33
2019-05-17T01:18:29.122Z,11.87
2019-05-17T01:20:56.760Z,13.10
2019-05-17T01:23:22.587Z,13.70
2019-05-17T01:25:49.326Z,13.50
2019-05-17T01:28:16.443Z,13.37
2019-05-17T01:30:42.898Z,14.13
2019-05-17T01:33:09.626Z,13.57
2019-05-17T01:35:37.387Z,13.87
2019-05-17T01:38:03.250Z,13.30
2019-05-17T01:40:29.990Z,14.17
2019-05-17T01:42:58.137Z,14.90
2019-05-17T01:45:23.446Z,14.37
2019-05-17T01:47:50.166Z,14.53
2019-05-17T01:50:17.468Z,15.50
2019-05-17T01:52:45.865Z,15.27
2019-05-17T01:55:10.498Z,15.30
2019-05-17T01:57:37.343Z,14.77
2019-05-17T02:00:06.370Z,15.37
2019-05-17T02:02:36.459Z,15.80
2019-05-17T02:05:00.762Z,15.73
2019-05-17T02:07:27.526Z,15.40
2019-05-17T02:09:56.700Z,15.30
2019-05-17T02:12:20.982Z,15.13
2019-05-17T02:14:47.734Z,14.50
2019-05-17T02:17:14.460Z,15.67
2019-05-17T02:19:41.187Z,19.20
2019-05-17T02:22:08.034Z,17.47
2019-05-17T02:24:36.894Z,19.07
2019-05-17T02:27:01.505Z,16.90
2019-05-17T02:29:28.244Z,16.03
2019-05-17T02:31:55.019Z,14.83
2019-05-17T02:34:23.242Z,16.10
2019-05-17T02:36:48.494Z,17.20
2019-05-17T02:39:15.221Z,17.53
2019-05-17T02:41:42.971Z,16.80
2019-05-17T02:44:08.697Z,17.17
2019-05-17T02:46:35.481Z,17.43
2019-05-17T02:49:02.988Z,20.83
2019-05-17T02:51:28.931Z,20.90
2019-05-17T02:53:55.668Z,17.20
2019-05-17T02:56:23.219Z,21.23
2019-05-17T02:58:49.160Z,17.33
2019-05-17T03:01:15.931Z,20.88
2019-05-17T03:03:43.625Z,21.40
2019-05-17T03:06:09.395Z,17.13
2019-05-17T03:08:36.123Z,19.62
2019-05-17T03:11:03.562Z,17.93
2019-05-17T03:13:32.794Z,19.90
2019-05-17T03:15:56.652Z,20.03
2019-05-17T03:18:23.373Z,20.57
2019-05-17T03:20:52.526Z,22.45
2019-05-17T03:23:16.949Z,17.33
2019-05-17T03:25:44.100Z,17.17
2019-05-17T03:28:13.202Z,18.40
2019-05-17T03:30:38.142Z,17.10
2019-05-17T03:33:07.654Z,17.67
2019-05-17T03:35:37.755Z,17.00
2019-05-17T03:37:58.419Z,18.70
2019-05-17T03:40:56.520Z,17.60
2019-05-17T03:42:53.870Z,18.03
2019-05-17T03:45:18.730Z,23.00
2019-05-17T03:47:45.665Z,20.77
2019-05-17T03:50:13.456Z,18.77
2019-05-17T03:52:39.195Z,18.10
2019-05-17T03:55:05.913Z,22.60
2019-05-17T03:57:32.653Z,24.07
2019-05-17T04:00:03.498Z,21.17
2019-05-17T04:02:26.318Z,19.00
2019-05-17T04:04:53.294Z,20.00
2019-05-17T04:07:23.366Z,17.17
2019-05-17T04:09:46.589Z,19.40
2019-05-17T04:12:13.736Z,19.27
2019-05-17T04:14:42.827Z,18.87
2019-05-17T04:17:06.865Z,19.40
2019-05-17T04:19:33.848Z,19.47
2019-05-17T04:22:03.487Z,20.27
2019-05-17T04:24:27.036Z,20.47
2019-05-17T04:26:53.767Z,19.57
2019-05-17T04:29:22.673Z,20.77
2019-05-17T04:31:47.491Z,18.77
2019-05-17T04:34:14.765Z,20.03
2019-05-17T04:36:43.155Z,19.60
2019-05-17T04:39:08.251Z,18.07
2019-05-17T04:41:45.145Z,18.20
2019-05-17T04:44:02.709Z,20.30
2019-05-17T04:46:28.766Z,20.47
2019-05-17T04:48:55.501Z,20.50
2019-05-17T04:51:23.250Z,18.87
2019-05-17T04:53:52.725Z,20.20
2019-05-17T04:56:15.922Z,19.77
2019-05-17T04:58:43.060Z,19.87
2019-05-17T05:01:12.907Z,18.73
2019-05-17T05:03:36.139Z,19.10
2019-05-17T05:06:03.420Z,18.50
2019-05-17T05:08:32.771Z,18.50
2019-05-17T05:10:56.387Z,23.35
2019-05-17T05:13:23.132Z,20.13
2019-05-17T05:15:52.035Z,18.97
2019-05-17T05:18:16.592Z,19.40
2019-05-17T05:20:43.912Z,18.63
2019-05-17T05:23:12.130Z,17.60
2019-05-17T05:25:36.800Z,19.00
2019-05-17T05:28:03.522Z,18.87
2019-05-17T05:30:32.042Z,19.33
2019-05-17T05:32:57.027Z,17.33
2019-05-17T05:35:23.758Z,17.27
2019-05-17T05:37:52.489Z,17.13
2019-05-17T05:40:17.258Z,16.20
2019-05-17T05:42:43.990Z,16.53
2019-05-17T05:45:12.119Z,16.70
2019-05-17T05:47:37.462Z,15.30
2019-05-17T05:50:04.414Z,17.40
2019-05-17T05:52:32.440Z,16.90
2019-05-17T05:54:58.084Z,14.80
2019-05-17T05:57:24.818Z,16.03
2019-05-17T05:59:51.897Z,18.50
2019-05-17T06:02:18.267Z,15.90
2019-05-17T06:04:44.998Z,17.30
2019-05-17T06:07:12.865Z,16.87
2019-05-17T06:09:38.550Z,18.15
2019-05-17T06:12:05.342Z,17.90
2019-05-17T06:14:32.450Z,16.33
2019-05-17T06:16:58.913Z,17.97
2019-05-17T06:19:25.639Z,16.80
2019-05-17T06:21:52.381Z,15.57
2019-05-17T06:24:19.103Z,16.20
2019-05-17T06:26:45.837Z,16.07
2019-05-17T06:29:12.577Z,16.97
2019-05-17T06:31:39.409Z,16.03
2019-05-17T06:34:06.135Z,16.40
2019-05-17T06:36:33.028Z,16.23
2019-05-17T06:39:02.101Z,16.73
2019-05-17T06:41:26.337Z,17.17
2019-05-17T06:43:53.058Z,15.60
2019-05-17T06:46:21.972Z,17.20
2019-05-17T06:48:46.643Z,16.67
2019-05-17T06:51:13.369Z,17.30
2019-05-17T06:53:40.117Z,16.13
2019-05-17T06:56:06.846Z,16.27
2019-05-17T06:58:33.569Z,14.77
2019-05-17T07:01:00.333Z,18.05
2019-05-17T07:03:29.345Z,17.40
2019-05-17T07:05:54.258Z,18.70
2019-05-17T07:08:20.982Z,16.47
2019-05-17T07:10:50.110Z,17.20
2019-05-17T07:13:14.458Z,16.23
2019-05-17T07:15:47.298Z,16.07
2019-05-17T07:18:10.156Z,16.07
2019-05-17T07:20:34.643Z,16.60
2019-05-17T07:23:01.423Z,16.87
2019-05-17T07:25:30.221Z,16.73
2019-05-17T07:27:54.891Z,17.10
2019-05-17T07:30:21.615Z,15.53
2019-05-17T07:32:49.799Z,15.70
2019-05-17T07:35:15.074Z,15.93
2019-05-17T07:37:41.915Z,15.90
2019-05-17T07:40:10.876Z,18.35
2019-05-17T07:42:35.370Z,15.23
2019-05-17T07:45:02.286Z,15.73
2019-05-17T07:47:29.441Z,16.43
2019-05-17T07:49:55.796Z,16.10
2019-05-17T07:52:22.538Z,16.30
2019-05-17T07:54:50.831Z,16.50
2019-05-17T07:57:16.010Z,15.50
2019-05-17T07:59:42.746Z,15.40
2019-05-17T08:02:10.645Z,16.13
2019-05-17T08:04:36.214Z,17.45
2019-05-17T08:07:02.933Z,16.87
2019-05-17T08:09:30.167Z,16.60
2019-05-17T08:11:56.395Z,17.63
2019-05-17T08:14:29.958Z,16.50
2019-05-17T08:16:50.229Z,15.83
2019-05-17T08:19:16.599Z,14.13
2019-05-17T08:21:43.318Z,15.63
2019-05-17T08:24:10.398Z,15.70
2019-05-17T08:26:36.778Z,15.80
2019-05-17T08:29:03.526Z,15.93
2019-05-17T08:31:30.231Z,15.27
2019-05-17T08:33:56.982Z,12.50
2019-05-17T08:36:23.700Z,13.93
2019-05-17T08:38:50.442Z,14.60
2019-05-17T08:41:17.165Z,14.55
2019-05-17T08:43:47.010Z,13.23
2019-05-17T08:46:10.724Z,13.20
2019-05-17T08:48:37.390Z,13.00
2019-05-17T08:51:04.110Z,14.38
2019-05-17T08:53:30.857Z,11.80
2019-05-17T08:55:57.592Z,12.77
2019-05-17T08:58:24.294Z,13.13
2019-05-17T09:00:51.041Z,13.57
2019-05-17T09:03:19.589Z,12.93
2019-05-17T09:05:44.531Z,11.83
2019-05-17T09:08:11.247Z,11.07
2019-05-17T09:10:40.473Z,10.30
2019-05-17T09:13:04.734Z,12.13
2019-05-17T09:15:31.473Z,10.67
2019-05-17T09:18:00.183Z,10.70
2019-05-17T09:20:24.946Z,10.43
2019-05-17T09:22:51.679Z,11.87
2019-05-17T09:25:21.444Z,12.00
2019-05-17T09:27:45.338Z,12.67
2019-05-17T09:30:12.066Z,12.03
2019-05-17T09:32:40.528Z,10.90
2019-05-17T09:35:05.555Z,10.80
2019-05-17T09:37:32.283Z,12.10
2019-05-17T09:39:59.858Z,12.10
2019-05-17T09:42:25.754Z,11.10
2019-05-17T09:44:52.503Z,11.80
2019-05-17T09:47:20.606Z,10.43
2019-05-17T09:49:45.997Z,11.50
2019-05-17T09:52:12.722Z,11.43
2019-05-17T09:54:44.975Z,9.20
2019-05-17T09:57:06.193Z,10.17
2019-05-17T09:59:32.925Z,11.90
2019-05-17T10:02:00.111Z,10.33
2019-05-17T10:04:26.383Z,10.68
2019-05-17T10:06:53.134Z,9.23
2019-05-17T10:09:19.866Z,10.53
2019-05-17T10:11:46.633Z,9.23
2019-05-17T10:14:24.588Z,10.80
2019-05-17T10:16:40.199Z,9.83
2019-05-17T10:19:09.445Z,9.20
2019-05-17T10:21:33.683Z,9.70
2019-05-17T10:24:00.463Z,10.07
2019-05-17T10:26:30.193Z,9.20
2019-05-17T10:28:53.967Z,9.80
2019-05-17T10:31:20.729Z,9.73
2019-05-17T10:33:49.364Z,9.30
2019-05-17T10:36:14.222Z,10.20
2019-05-17T10:38:40.953Z,11.13
2019-05-17T10:41:09.965Z,9.80
2019-05-17T10:43:34.446Z,10.10
2019-05-17T10:46:01.191Z,9.83
2019-05-17T10:48:29.996Z,8.73
2019-05-17T10:50:54.677Z,9.40
2019-05-17T10:53:21.403Z,9.10
2019-05-17T10:55:49.812Z,9.43
2019-05-17T10:58:14.890Z,10.37
2019-05-17T11:00:41.734Z,9.30
2019-05-17T11:03:09.803Z,9.60
2019-05-17T11:05:35.097Z,9.90
2019-05-17T11:08:01.838Z,10.10
2019-05-17T11:10:28.606Z,8.93
2019-05-17T11:12:55.343Z,8.90
2019-05-17T11:15:22.086Z,8.80
2019-05-17T11:17:48.797Z,9.10
2019-05-17T11:20:15.572Z,7.73
2019-05-17T11:22:42.293Z,7.83
2019-05-17T11:25:09.036Z,8.47
2019-05-17T11:27:35.788Z,8.47
2019-05-17T11:30:02.538Z,8.33
2019-05-17T11:32:29.312Z,9.10
2019-05-17T11:34:56.030Z,9.60
2019-05-17T11:37:22.835Z,9.17
2019-05-17T11:39:49.602Z,8.17
2019-05-17T11:42:17.299Z,8.60
2019-05-17T11:44:44.034Z,8.37
2019-05-17T11:47:10.867Z,7.37
2019-05-17T11:49:37.604Z,7.40
2019-05-17T11:52:04.349Z,7.73
2019-05-17T11:54:32.270Z,7.33
2019-05-17T11:56:59.044Z,7.40
2019-05-17T11:59:25.745Z,6.30
2019-05-17T12:01:52.614Z,7.10
2019-05-17T12:04:19.346Z,7.03
2019-05-17T12:06:46.086Z,7.80
2019-05-17T12:09:12.831Z,8.00
2019-05-17T12:11:39.658Z,6.83
2019-05-17T12:14:06.407Z,8.90
2019-05-17T12:16:33.134Z,7.27
2019-05-17T12:18:59.954Z,9.47
2019-05-17T12:21:26.704Z,9.87
2019-05-17T12:23:53.450Z,7.43
2019-05-17T12:26:20.191Z,5.83
2019-05-17T12:28:47.059Z,5.90
2019-05-17T12:31:13.814Z,7.00
2019-05-17T12:33:40.595Z,7.23
2019-05-17T12:36:07.589Z,6.20
2019-05-17T12:38:34.310Z,6.27
2019-05-17T12:41:01.055Z,6.70
2019-05-17T12:43:27.875Z,5.97
2019-05-17T12:46:00.799Z,6.17
2019-05-17T12:48:21.400Z,5.90
2019-05-17T12:50:48.207Z,5.50
2019-05-17T12:53:14.975Z,6.13
2019-05-17T12:55:41.798Z,7.00
2019-05-17T12:58:08.581Z,6.63
2019-05-17T13:00:35.386Z,6.60
2019-05-17T13:03:02.255Z,6.28
2019-05-17T13:05:28.982Z,6.20
2019-05-17T13:07:55.797Z,6.00
2019-05-17T13:10:22.636Z,7.10
2019-05-17T13:12:49.394Z,5.70
2019-05-17T13:15:16.135Z,6.77
2019-05-17T13:17:42.979Z,5.40
2019-05-17T13:20:09.713Z,5.37
2019-05-17T13:22:36.486Z,6.07
2019-05-17T13:25:04.376Z,7.27
2019-05-17T13:27:31.126Z,5.50
2019-05-17T13:29:57.882Z,5.60
2019-05-17T13:32:24.642Z,6.43
2019-05-17T13:34:51.474Z,5.77
2019-05-17T13:37:18.214Z,5.40
2019-05-17T13:39:44.958Z,6.30
2019-05-17T13:42:11.802Z,5.70
2019-05-17T13:44:38.527Z,5.13
2019-05-17T13:47:05.275Z,5.28
2019-05-17T13:49:32.019Z,6.13
2019-05-17T13:51:58.876Z,6.07
2019-05-17T13:54:25.607Z,5.53
2019-05-17T13:56:52.348Z,5.00
2019-05-17T13:59:19.082Z,5.30
2019-05-17T14:01:45.959Z,5.70
2019-05-17T14:04:12.771Z,5.87
2019-05-17T14:06:39.539Z,6.20
2019-05-17T14:09:06.296Z,5.07
2019-05-17T14:11:33.050Z,5.33
2019-05-17T14:13:59.854Z,5.30
2019-05-17T14:16:26.575Z,5.57
2019-05-17T14:18:53.313Z,4.53
2019-05-17T14:21:20.185Z,4.70
2019-05-17T14:23:47.083Z,4.87
2019-05-17T14:26:13.833Z,5.03
2019-05-17T14:28:40.579Z,5.22
2019-05-17T14:31:07.431Z,4.50
2019-05-17T14:33:34.153Z,5.53
2019-05-17T14:36:00.928Z,4.77
2019-05-17T14:38:27.743Z,5.37
2019-05-17T14:41:09.901Z,6.00
2019-05-17T14:43:21.334Z,5.33
2019-05-17T14:45:48.076Z,4.50
2019-05-17T14:48:14.818Z,4.17
2019-05-17T14:50:41.564Z,4.53
2019-05-17T14:53:08.409Z,5.20
2019-05-17T14:55:35.139Z,4.57
2019-05-17T14:58:02.006Z,4.83
2019-05-17T15:00:28.748Z,5.43
2019-05-17T15:02:55.482Z,3.73
2019-05-17T15:05:22.200Z,4.10
2019-05-17T15:07:48.938Z,4.30
2019-05-17T15:10:15.769Z,4.00
2019-05-17T15:12:42.627Z,5.43
2019-05-17T15:15:09.364Z,4.60
2019-05-17T15:17:36.896Z,4.67
2019-05-17T15:20:03.667Z,4.30
2019-05-17T15:22:30.510Z,3.97
2019-05-17T15:24:57.386Z,4.60
2019-05-17T15:27:24.196Z,4.97
2019-05-17T15:29:51.031Z,10.40
2019-05-17T15:32:17.758Z,4.80
2019-05-17T15:34:44.514Z,7.57
2019-05-17T15:37:11.307Z,3.90
2019-05-17T15:39:38.022Z,4.43
2019-05-17T15:42:04.734Z,4.87
2019-05-17T15:44:31.477Z,3.40
2019-05-17T15:46:58.225Z,4.53
2019-05-17T15:49:24.968Z,4.03
2019-05-17T15:51:51.690Z,3.63
2019-05-17T15:54:18.430Z,3.60
2019-05-17T15:56:45.165Z,3.37
2019-05-17T15:59:11.908Z,4.10
2019-05-17T16:01:38.852Z,3.60
2019-05-17T16:04:05.361Z,4.03
2019-05-17T16:06:32.083Z,3.73
2019-05-17T16:08:58.871Z,4.00
2019-05-17T16:11:25.590Z,4.47
2019-05-17T16:13:52.318Z,4.10
2019-05-17T16:16:19.053Z,4.07
2019-05-17T16:18:45.782Z,3.40
2019-05-17T16:21:12.519Z,3.33
2019-05-17T16:23:39.358Z,3.70
2019-05-17T16:26:06.088Z,3.93
2019-05-17T16:28:32.840Z,3.50
2019-05-17T16:30:59.609Z,3.60
2019-05-17T16:33:26.339Z,3.47
2019-05-17T16:35:53.066Z,2.70
2019-05-17T16:38:19.807Z,2.83
2019-05-17T16:40:46.528Z,3.60
2019-05-17T16:43:18.100Z,2.57
2019-05-17T16:45:40.077Z,4.35
2019-05-17T16:48:06.830Z,3.07
2019-05-17T16:50:33.574Z,3.97
2019-05-17T16:53:05.913Z,3.70
2019-05-17T16:55:27.139Z,3.00
2019-05-17T16:57:53.858Z,2.80
2019-05-17T17:00:24.401Z,2.77
2019-05-17T17:02:51.123Z,2.50
2019-05-17T17:05:17.906Z,3.03
2019-05-17T17:07:44.623Z,2.40
2019-05-17T17:10:11.364Z,3.00
2019-05-17T17:12:38.111Z,2.93
2019-05-17T17:15:04.875Z,2.53
2019-05-17T17:17:31.593Z,2.40
2019-05-17T17:19:58.355Z,2.30
2019-05-17T17:22:25.084Z,2.23
2019-05-17T17:24:51.814Z,2.47
2019-05-17T17:27:18.532Z,2.50
2019-05-17T17:29:45.269Z,2.17
2019-05-17T17:32:21.253Z,2.20
2019-05-17T17:34:38.731Z,2.97
2019-05-17T17:37:05.471Z,2.60
2019-05-17T17:39:32.190Z,2.27
2019-05-17T17:41:58.933Z,2.20
2019-05-17T17:44:25.825Z,2.37
2019-05-17T17:46:52.550Z,1.80
2019-05-17T17:49:19.290Z,1.97
2019-05-17T17:51:46.007Z,2.50
2019-05-17T17:54:12.742Z,2.30
2019-05-17T17:56:39.454Z,2.07
2019-05-17T17:59:06.231Z,2.10
2019-05-17T18:01:32.930Z,1.93
2019-05-17T18:03:59.659Z,2.00
2019-05-17T18:06:26.418Z,1.80
2019-05-17T18:08:53.154Z,1.60
2019-05-17T18:11:19.889Z,2.00
2019-05-17T18:13:46.605Z,2.00
2019-05-17T18:16:13.361Z,1.90
2019-05-17T18:18:40.102Z,1.53
2019-05-17T18:21:06.829Z,1.80
2019-05-17T18:23:33.575Z,1.90
2019-05-17T18:26:00.298Z,1.97
2019-05-17T18:28:27.051Z,1.93
2019-05-17T18:30:53.781Z,1.90
2019-05-17T18:33:20.522Z,2.33
2019-05-17T18:35:47.254Z,2.10
2019-05-17T18:38:14.010Z,1.77
2019-05-17T18:40:40.762Z,2.60
2019-05-17T18:43:07.477Z,2.80
2019-05-17T18:45:34.218Z,2.63
2019-05-17T18:48:00.958Z,2.80
2019-05-17T18:50:27.982Z,2.80
2019-05-17T18:52:55.001Z,2.77
2019-05-17T18:55:21.487Z,2.63
2019-05-17T18:57:48.233Z,2.53
2019-05-17T19:00:14.987Z,5.77
2019-05-17T19:02:41.721Z,2.97
2019-05-17T19:05:08.488Z,2.43
2019-05-17T19:07:35.207Z,2.87
2019-05-17T19:10:02.005Z,2.50
2019-05-17T19:12:28.726Z,3.27
2019-05-17T19:14:55.478Z,2.50
2019-05-17T19:17:22.187Z,2.95
2019-05-17T19:19:48.948Z,3.33
2019-05-17T19:22:15.666Z,2.90
2019-05-17T19:24:42.431Z,2.40
2019-05-17T19:27:09.166Z,2.60
2019-05-17T19:29:35.910Z,2.67
2019-05-17T19:32:02.640Z,3.20
2019-05-17T19:34:29.370Z,3.80
2019-05-17T19:36:56.090Z,2.60
2019-05-17T19:39:22.826Z,3.10
2019-05-17T19:41:49.586Z,2.53
2019-05-17T19:44:16.481Z,2.77
2019-05-17T19:46:43.222Z,3.02
2019-05-17T19:49:09.968Z,3.80
2019-05-17T19:51:36.708Z,3.90
2019-05-17T19:54:03.436Z,3.30
2019-05-17T19:56:30.182Z,2.90
2019-05-17T19:58:56.921Z,3.10
2019-05-17T20:01:23.686Z,2.87
2019-05-17T20:03:50.422Z,3.10
2019-05-17T20:06:17.187Z,3.30
2019-05-17T20:08:43.906Z,3.10
2019-05-17T20:11:10.684Z,2.70
2019-05-17T20:13:37.402Z,2.97
2019-05-17T20:16:04.166Z,3.40
2019-05-17T20:18:30.927Z,2.97
2019-05-17T20:20:57.694Z,2.60
2019-05-17T20:23:24.418Z,2.67
2019-05-17T20:25:51.168Z,2.37
2019-05-17T20:28:17.887Z,2.73
2019-05-17T20:30:44.666Z,2.80
2019-05-17T20:33:11.390Z,2.97
2019-05-17T20:35:38.130Z,2.40
2019-05-17T20:38:04.854Z,2.20
2019-05-17T20:40:31.602Z,2.70
2019-05-17T20:42:58.330Z,2.50
2019-05-17T20:45:33.318Z,2.30
2019-05-17T20:47:51.806Z,2.27
2019-05-17T20:50:18.538Z,2.43
2019-05-17T20:52:45.267Z,2.30
2019-05-17T20:55:12.018Z,2.37
2019-05-17T20:57:38.742Z,2.70
2019-05-17T21:00:05.620Z,2.30
2019-05-17T21:02:32.346Z,2.50
2019-05-17T21:04:59.086Z,2.47
2019-05-17T21:07:25.815Z,2.80
2019-05-17T21:09:52.542Z,2.40
2019-05-17T21:12:19.282Z,2.50
2019-05-17T21:14:46.001Z,2.50
2019-05-17T21:17:12.721Z,2.40
2019-05-17T21:19:39.445Z,2.47
2019-05-17T21:22:06.191Z,2.33
2019-05-17T21:24:32.939Z,2.50
2019-05-17T21:26:59.734Z,2.83
2019-05-17T21:29:26.433Z,2.60
2019-05-17T21:31:53.179Z,2.20
2019-05-17T21:34:19.910Z,2.30
2019-05-17T21:36:46.658Z,2.23
2019-05-17T21:39:13.397Z,2.27
2019-05-17T21:41:40.150Z,2.33
2019-05-17T21:44:06.878Z,2.30
2019-05-17T21:46:33.625Z,1.87
2019-05-17T21:49:00.350Z,2.40
2019-05-17T21:51:27.222Z,2.23
2019-05-17T21:53:53.975Z,2.47
2019-05-17T21:56:20.730Z,2.37
2019-05-17T21:58:47.448Z,2.50
2019-05-17T22:01:15.822Z,2.57
2019-05-17T22:03:42.538Z,2.20
2019-05-17T22:06:09.295Z,1.87
2019-05-17T22:08:36.044Z,1.90
2019-05-17T22:11:02.766Z,2.07
2019-05-17T22:13:29.599Z,2.60
2019-05-17T22:15:56.334Z,2.50
2019-05-17T22:18:23.078Z,2.60
2019-05-17T22:20:49.817Z,2.50
2019-05-17T22:23:16.562Z,2.60
2019-05-17T22:25:43.295Z,2.20
2019-05-17T22:28:10.031Z,2.90
2019-05-17T22:30:36.766Z,2.57
2019-05-17T22:33:03.522Z,2.30
2019-05-17T22:35:30.246Z,3.00
2019-05-17T22:37:57.010Z,3.07
2019-05-17T22:40:23.740Z,2.97
2019-05-17T22:42:50.487Z,2.90
2019-05-17T22:45:17.211Z,2.50
2019-05-17T22:47:44.012Z,3.13
2019-05-17T22:50:10.699Z,2.20
2019-05-17T22:52:37.442Z,3.43
2019-05-17T22:55:04.218Z,3.07
2019-05-17T22:57:30.954Z,3.50
2019-05-17T22:59:57.753Z,3.60
2019-05-17T23:02:24.503Z,3.53
2019-05-17T23:04:51.226Z,3.70
2019-05-17T23:07:17.981Z,3.60
2019-05-17T23:09:44.698Z,3.40
2019-05-17T23:12:11.442Z,3.67
2019-05-17T23:14:38.182Z,3.67
2019-05-17T23:17:04.925Z,3.90
2019-05-17T23:19:31.650Z,3.90
2019-05-17T23:21:58.386Z,4.03
2019-05-17T23:24:25.174Z,4.13
2019-05-17T23:26:51.921Z,4.00
2019-05-17T23:29:18.645Z,4.60
2019-05-17T23:31:45.421Z,4.63
2019-05-17T23:34:12.149Z,4.13
2019-05-17T23:36:38.874Z,4.17
2019-05-17T23:39:05.994Z,4.33
2019-05-17T23:41:32.715Z,4.87
2019-05-17T23:43:59.457Z,4.40
2019-05-17T23:46:26.185Z,4.10
2019-05-17T23:48:52.926Z,4.53
2019-05-17T23:51:19.645Z,4.00
2019-05-17T23:53:46.403Z,4.43
2019-05-17T23:56:13.173Z,3.70
2019-05-17T23:58:39.927Z,3.93
